Terminal Aerodrome Forecast
Issued by NWS

Home | Current Version | Previous Version | Text Only | Print | Product List | Glossary On
Versions: 1 2 3 4 5 6 7 8 9 10 11 12 13 14 15 16 17
734
FTUS44 KBMX 240520
TAFMGM
TAF
KMGM 240520Z 2406/2506 31004KT P6SM SCT040 SCT200
     FM241500 35006KT P6SM FEW050 SCT250
     FM250000 35003KT P6SM SCT250=

USA.gov is the U.S. government's official web portal to all federal, state and local government web resources and services.